Airfield :
LOGIN :

Register | Disclaimer

   EN    FR    IT 

 










Legend :    VFR   Marginal VFR   IFR   Intensive IFR   Very Intensive IFR
Visi :
Ceiling :
>= 8 km
>= 3000ft
5 to 8 km
1000 to 3000 ft
1500m to 5 km
500 to 1000 ft
800 to 1500m
200 to 500 ft
< 800m
< 200 ft
Symbols :   Thunderstorms  Fog  Heavy snow  Heavy precipitations  Wind > 20 kt
SIGMETs :     Misc.  Thunderstorms  Icing  Turbulence  Mountain Waves  Volcanic Ashes






- Airport Elevation : 2945 ft
- IATA code : RGS


LEBG - Burgos

CURRENT METAR :
  • 130930Z 22017G28KT 9999 SCT017 10/07 Q1012

EXPIRED METARs :
  • 130900Z 21014KT 9999 OVC018 09/07 Q1012
  • 130830Z 22016G26KT 190V250 9999 OVC019 09/07 Q1011
  • 130800Z 22016KT 9999 OVC017 09/07 Q1011
  • 130730Z 21016KT 9999 OVC017 09/07 Q1010
  • 130700Z 21018KT 9999 OVC017 09/07 Q1010

TAF TAF LEBG
Valid from the 13 at 09:00 until the 13 at 18:00 UTC


130800Z 1309/1318 25020KT 9999 BKN017
PROB30
TEMPO 1309/1312 4000 RADZ BKN008
TEMPO 1309/1318 27024G35KT



MET'MAP, your aeronautical weather chart ! - Copyright ORBIFLY December 2007 - Disclaimer

ORBIFLY MET'MAP TEAM :

Programming & Development : Alexandra Zaïnal
Concept & original design : Baudouin d'Aumeries
Assistance for programming : Marc-Olivier Méhu
Technical & hardware support : Manuel Goepfert

Contact : metmap@orbifly.com




SOURCES & CREDITS :

   NOAA